Time;durP1;ratioP1;P1;durP2;ratioP2;P2;SDS_P1;SDS_P2;PMS_P1;PMS_P2;Temp;Humidity;BMP_temperature;BMP_pressure;BME280_temperature;BME280_humidity;BME280_pressure;Samples;Min_cycle;Max_cycle;Signal;HPM_P1;HPM_P2
2022/03/21 00:00:41;;;;;;;8.50;6.10;;;;;;;1.18;41.42;101554.72;4901250;29;20784;-78
2022/03/21 00:03:10;;;;;;;8.73;5.70;;;;;;;1.13;40.83;101548.91;4908963;29;20736;-79
2022/03/21 00:05:37;;;;;;;7.27;5.60;;;;;;;1.12;41.38;101555.19;4917426;29;20644;-79
2022/03/21 00:08:04;;;;;;;6.97;5.53;;;;;;;1.23;40.97;101552.56;4916813;29;20234;-78
2022/03/21 00:10:33;;;;;;;6.83;5.67;;;;;;;1.18;41.33;101554.72;4917240;29;20289;-79
2022/03/21 00:13:00;;;;;;;8.00;5.47;;;;;;;1.17;41.24;101553.00;4910115;29;20766;-79
2022/03/21 00:15:29;;;;;;;7.63;5.30;;;;;;;1.27;41.37;101548.75;4897732;29;20276;-79
2022/03/21 00:17:56;;;;;;;5.83;5.23;;;;;;;1.18;41.54;101546.78;4916212;29;20707;-79
2022/03/21 00:20:23;;;;;;;6.63;4.90;;;;;;;1.18;41.98;101536.22;4917043;29;20234;-79
2022/03/21 00:22:51;;;;;;;6.80;5.40;;;;;;;1.27;41.40;101539.03;4903355;29;20242;-79
2022/03/21 00:25:18;;;;;;;7.23;5.60;;;;;;;1.32;40.86;101536.88;4914540;29;20242;-79
2022/03/21 00:27:50;;;;;;;7.77;5.63;;;;;;;1.33;40.91;101535.09;4909995;29;20236;-79
2022/03/21 00:30:17;;;;;;;7.20;5.23;;;;;;;1.54;40.87;101535.31;4915341;29;20611;-79
2022/03/21 00:32:45;;;;;;;8.97;5.53;;;;;;;1.60;40.51;101532.19;4911842;29;20325;-79
2022/03/21 00:35:14;;;;;;;6.27;5.43;;;;;;;1.46;40.88;101527.94;4915070;29;20769;-79
2022/03/21 00:37:43;;;;;;;6.87;5.33;;;;;;;1.43;40.36;101522.91;4904158;29;20235;-78
2022/03/21 00:40:11;;;;;;;7.07;5.43;;;;;;;1.56;40.77;101528.94;4912766;29;20289;-78
2022/03/21 00:42:39;;;;;;;5.80;5.10;;;;;;;1.59;40.61;101530.50;4899063;29;20317;-78
2022/03/21 00:45:09;;;;;;;6.73;5.37;;;;;;;1.56;41.03;101534.22;4915628;29;20694;-78
2022/03/21 00:47:36;;;;;;;7.93;5.27;;;;;;;1.50;40.88;101526.75;4903258;29;20266;-79
2022/03/21 00:50:05;;;;;;;5.83;5.17;;;;;;;1.58;40.72;101526.19;4903539;29;20656;-78
2022/03/21 00:52:37;;;;;;;6.20;5.23;;;;;;;1.59;40.58;101517.28;4910056;29;20673;-78
2022/03/21 00:55:04;;;;;;;5.70;4.93;;;;;;;1.70;40.14;101522.59;4897401;29;20253;-79
2022/03/21 00:57:32;;;;;;;6.10;5.23;;;;;;;1.61;40.49;101507.44;4903439;29;20777;-79
2022/03/21 00:59:59;;;;;;;5.73;4.77;;;;;;;1.50;40.45;101510.91;4916981;29;20234;-79
2022/03/21 01:02:25;;;;;;;7.13;5.30;;;;;;;1.50;41.20;101505.59;4913678;29;21460;-78
2022/03/21 01:04:52;;;;;;;6.50;5.37;;;;;;;1.45;40.79;101498.97;4908804;29;20234;-79
2022/03/21 01:07:19;;;;;;;6.27;5.53;;;;;;;1.47;41.20;101507.66;4916689;29;20321;-78
2022/03/21 01:09:46;;;;;;;7.47;5.90;;;;;;;1.44;41.32;101499.97;4907343;29;20239;-78
2022/03/21 01:12:14;;;;;;;7.77;5.40;;;;;;;1.51;41.39;101495.88;4899304;29;20235;-78
2022/03/21 01:14:41;;;;;;;8.77;6.00;;;;;;;1.37;41.21;101488.16;4905282;29;20285;-79
2022/03/21 01:17:08;;;;;;;7.03;5.53;;;;;;;1.44;41.27;101486.75;4903379;29;20317;-78
2022/03/21 01:19:35;;;;;;;6.50;5.50;;;;;;;1.46;41.29;101480.38;4903027;29;20246;-78
2022/03/21 01:22:02;;;;;;;7.67;5.57;;;;;;;1.46;41.25;101482.19;4916373;29;20244;-78
2022/03/21 01:24:29;;;;;;;7.13;5.50;;;;;;;1.39;41.22;101487.09;4903190;29;20250;-78
2022/03/21 01:26:56;;;;;;;7.10;5.57;;;;;;;1.41;41.13;101473.75;4916381;29;20240;-81
2022/03/21 01:29:22;;;;;;;6.93;5.50;;;;;;;1.29;41.26;101476.41;4909659;29;20238;-78
2022/03/21 01:31:49;;;;;;;7.03;5.50;;;;;;;1.22;41.31;101474.31;4916197;29;20238;-79
2022/03/21 01:34:16;;;;;;;7.33;5.27;;;;;;;1.12;41.52;101463.59;4915925;29;20757;-79
2022/03/21 01:36:43;;;;;;;7.23;4.77;;;;;;;1.21;41.75;101476.09;4916078;29;20273;-79
2022/03/21 01:39:09;;;;;;;6.40;5.33;;;;;;;1.22;41.93;101480.44;4908113;29;20316;-79
2022/03/21 01:41:36;;;;;;;6.70;5.53;;;;;;;1.07;42.04;101478.13;4908444;29;20243;-79
2022/03/21 01:44:08;;;;;;;7.10;5.50;;;;;;;1.12;42.15;101484.72;4908339;29;20647;-80
2022/03/21 01:46:36;;;;;;;9.73;5.37;;;;;;;1.16;42.35;101478.28;4915787;29;20669;-78
2022/03/21 01:49:08;;;;;;;6.63;5.17;;;;;;;1.17;41.96;101466.72;4895158;29;20238;-79
2022/03/21 01:51:36;;;;;;;7.20;5.37;;;;;;;1.15;41.68;101465.19;4914757;29;20241;-79
2022/03/21 01:56:50;;;;;;;5.87;5.20;;;;;;;1.20;41.19;101455.97;4910899;29;20230;-79
2022/03/21 01:59:19;;;;;;;7.20;5.20;;;;;;;1.23;41.57;101460.16;4914706;29;20257;-78
2022/03/21 02:01:46;;;;;;;7.30;5.03;;;;;;;1.12;41.59;101460.13;4913555;29;20238;-79
2022/03/21 02:04:13;;;;;;;7.23;5.17;;;;;;;1.04;41.77;101460.69;4915745;29;20226;-78
2022/03/21 02:06:44;;;;;;;6.13;4.60;;;;;;;1.06;41.60;101461.44;4908513;29;20245;-79
2022/03/21 02:09:12;;;;;;;6.63;5.03;;;;;;;1.05;42.25;101454.47;4902978;29;20235;-79
2022/03/21 02:11:40;;;;;;;6.37;4.87;;;;;;;1.12;41.71;101458.31;4888860;29;20302;-78
2022/03/21 02:14:09;;;;;;;6.80;5.20;;;;;;;1.03;42.13;101456.34;4915376;29;20478;-79
2022/03/21 02:16:38;;;;;;;7.50;5.10;;;;;;;1.05;41.89;101454.47;4915822;29;20254;-78
2022/03/21 02:19:27;;;;;;;6.83;5.07;;;;;;;1.05;41.99;101450.97;4896188;29;20246;-78
2022/03/21 02:21:57;;;;;;;7.30;5.33;;;;;;;1.08;41.78;101450.75;4906825;29;20262;-79
2022/03/21 02:24:30;;;;;;;7.13;4.50;;;;;;;1.21;41.12;101444.41;4902170;29;20648;-78
2022/03/21 02:26:58;;;;;;;6.63;4.63;;;;;;;1.22;41.44;101445.25;4907856;29;20231;-78
2022/03/21 02:29:26;;;;;;;6.70;4.77;;;;;;;1.23;41.49;101447.78;4912087;29;20254;-78
2022/03/21 02:31:55;;;;;;;6.73;4.97;;;;;;;1.17;41.62;101450.88;4904852;29;20337;-80
2022/03/21 02:34:26;;;;;;;6.17;5.07;;;;;;;1.11;41.33;101438.19;4914179;29;20296;-78
2022/03/21 02:36:59;;;;;;;7.13;4.83;;;;;;;1.13;41.42;101445.97;4901692;29;20234;-79
2022/03/21 02:39:27;;;;;;;5.67;4.97;;;;;;;1.14;41.96;101432.66;4896292;29;20248;-79
2022/03/21 02:41:54;;;;;;;8.13;5.07;;;;;;;1.18;41.26;101435.91;4904933;29;20334;-79
2022/03/21 02:44:22;;;;;;;6.07;5.07;;;;;;;1.24;41.56;101436.28;4912484;29;20249;-79
2022/03/21 02:46:49;;;;;;;6.43;4.90;;;;;;;1.20;41.33;101434.00;4912587;29;20240;-79
2022/03/21 02:49:16;;;;;;;7.67;5.07;;;;;;;1.29;41.35;101435.94;4900397;29;20326;-79
2022/03/21 02:51:43;;;;;;;6.60;4.77;;;;;;;1.27;41.68;101440.47;4911963;29;20277;-79
2022/03/21 02:54:11;;;;;;;6.30;4.80;;;;;;;1.26;41.86;101436.19;4929985;29;20242;-79
2022/03/21 02:56:37;;;;;;;8.23;4.97;;;;;;;1.27;41.58;101437.84;4929613;29;20318;-80
2022/03/21 02:59:04;;;;;;;6.53;4.93;;;;;;;1.16;41.48;101437.81;4930796;29;20237;-79
2022/03/21 03:01:31;;;;;;;6.10;4.80;;;;;;;1.20;41.18;101439.28;4930386;29;20269;-79
2022/03/21 03:03:59;;;;;;;6.43;4.80;;;;;;;1.25;41.78;101440.63;4923703;29;20237;-78
2022/03/21 03:06:27;;;;;;;6.13;4.80;;;;;;;1.23;41.74;101441.69;4898464;29;20274;-79
2022/03/21 03:08:54;;;;;;;6.87;4.80;;;;;;;1.18;41.28;101449.09;4917250;29;20710;-78
2022/03/21 03:11:21;;;;;;;7.73;4.80;;;;;;;1.25;41.74;101448.53;4903887;29;20254;-79
2022/03/21 03:13:48;;;;;;;6.57;4.97;;;;;;;1.14;41.46;101439.72;4918175;29;20237;-79
2022/03/21 03:16:14;;;;;;;7.63;5.00;;;;;;;1.22;41.42;101442.63;4916934;29;20848;-79
2022/03/21 03:18:44;;;;;;;8.30;5.50;;;;;;;1.25;41.73;101445.06;4917942;29;20702;-78
2022/03/21 03:21:13;;;;;;;7.77;5.03;;;;;;;1.18;42.03;101442.03;4917978;29;20693;-79
2022/03/21 03:23:42;;;;;;;6.53;4.87;;;;;;;1.15;42.04;101444.06;4899226;29;20330;-79
2022/03/21 03:26:09;;;;;;;7.83;5.20;;;;;;;1.21;41.49;101440.97;4897828;29;20318;-79
2022/03/21 03:28:35;;;;;;;6.40;5.00;;;;;;;1.29;41.53;101441.22;4915452;29;20253;-79
2022/03/21 03:31:13;;;;;;;6.47;5.10;;;;;;;1.28;41.47;101447.44;4917527;29;20241;-79
2022/03/21 03:33:41;;;;;;;6.20;5.17;;;;;;;1.23;41.25;101454.88;4889425;29;20291;-79
2022/03/21 03:36:08;;;;;;;5.70;4.40;;;;;;;1.14;41.46;101445.00;4910199;29;20234;-79
2022/03/21 03:38:35;;;;;;;8.67;5.00;;;;;;;1.21;42.00;101440.97;4898411;29;20325;-78
2022/03/21 03:41:02;;;;;;;6.67;5.33;;;;;;;1.27;41.59;101435.19;4917061;29;20242;-79
2022/03/21 03:43:29;;;;;;;6.47;4.63;;;;;;;1.28;41.47;101443.00;4903224;29;20341;-79
2022/03/21 03:45:57;;;;;;;8.17;5.23;;;;;;;1.29;40.90;101438.56;4904481;29;20244;-79
2022/03/21 03:48:26;;;;;;;6.83;5.20;;;;;;;1.18;41.54;101433.25;4916649;29;20246;-78
2022/03/21 03:50:52;;;;;;;6.80;5.20;;;;;;;1.24;41.58;101438.94;4915936;29;20793;-79
2022/03/21 03:53:19;;;;;;;7.63;5.07;;;;;;;1.13;41.89;101428.31;4911225;29;20231;-79
2022/03/21 03:55:46;;;;;;;5.77;4.93;;;;;;;1.22;41.80;101432.91;4909576;29;20235;-79
2022/03/21 03:58:13;;;;;;;6.50;4.87;;;;;;;1.15;41.76;101431.69;4904257;29;20304;-79
2022/03/21 04:00:40;;;;;;;6.27;5.07;;;;;;;1.21;41.94;101438.31;4904678;29;20953;-79
2022/03/21 04:05:52;;;;;;;7.57;4.73;;;;;;;1.18;41.27;101436.75;4904902;29;20744;-78
2022/03/21 04:08:19;;;;;;;6.87;5.23;;;;;;;1.15;41.33;101442.25;4916668;29;20238;-79
2022/03/21 04:10:46;;;;;;;7.47;5.77;;;;;;;1.23;41.80;101446.94;4916682;29;20718;-79
2022/03/21 04:13:13;;;;;;;5.47;4.80;;;;;;;1.13;41.38;101435.41;4916900;29;20289;-78
2022/03/21 04:15:40;;;;;;;6.30;4.97;;;;;;;1.21;41.52;101433.84;4901361;29;20249;-78
2022/03/21 04:18:06;;;;;;;5.00;4.50;;;;;;;1.16;41.92;101437.81;4916696;29;20233;-79
2022/03/21 04:20:36;;;;;;;6.60;5.13;;;;;;;1.09;41.43;101437.44;4915401;29;20240;-79
2022/03/21 04:23:04;;;;;;;7.93;5.13;;;;;;;1.05;41.52;101428.06;4916006;29;20229;-79
2022/03/21 04:25:31;;;;;;;6.67;4.83;;;;;;;1.04;41.84;101441.38;4903585;29;20239;-79
2022/03/21 04:27:59;;;;;;;6.03;5.20;;;;;;;1.09;41.64;101447.16;4904154;29;20233;-79
2022/03/21 04:30:26;;;;;;;7.53;5.47;;;;;;;0.94;41.93;101435.94;4914707;29;20316;-78
2022/03/21 04:32:53;;;;;;;6.47;5.30;;;;;;;0.92;41.90;101442.28;4916992;29;20234;-79
2022/03/21 04:35:19;;;;;;;7.43;5.10;;;;;;;0.85;42.44;101448.00;4916168;29;20240;-79
2022/03/21 04:37:46;;;;;;;6.60;4.90;;;;;;;0.88;42.64;101437.25;4911467;29;20290;-79
2022/03/21 04:40:13;;;;;;;8.60;4.97;;;;;;;0.62;44.01;101451.50;4908944;29;20238;-78
2022/03/21 04:42:40;;;;;;;8.93;6.03;;;;;;;0.11;45.63;101456.06;4900707;29;20722;-79
2022/03/21 04:45:07;;;;;;;9.03;5.87;;;;;;;0.16;46.06;101450.47;4915112;29;20305;-79
2022/03/21 04:47:34;;;;;;;8.20;6.43;;;;;;;-0.04;46.32;101455.34;4916296;29;20651;-78
2022/03/21 04:50:02;;;;;;;8.07;5.93;;;;;;;-0.32;47.38;101449.47;4915769;29;20292;-79
2022/03/21 04:52:28;;;;;;;7.37;6.07;;;;;;;-0.42;47.55;101449.25;4916020;29;20241;-79
2022/03/21 04:54:55;;;;;;;8.20;6.27;;;;;;;-0.58;49.11;101454.75;4916447;29;20265;-78
2022/03/21 04:57:22;;;;;;;8.53;6.83;;;;;;;-0.75;49.35;101456.84;4915985;29;20272;-78
2022/03/21 04:59:49;;;;;;;8.83;6.53;;;;;;;-0.88;50.48;101456.78;4914859;29;20229;-78
2022/03/21 05:02:16;;;;;;;8.93;7.10;;;;;;;-0.97;51.36;101467.94;4898878;29;20309;-79
2022/03/21 05:04:43;;;;;;;9.43;7.03;;;;;;;-1.02;52.06;101462.97;4896558;29;20237;-79
2022/03/21 05:07:16;;;;;;;10.30;7.10;;;;;;;-1.07;53.32;101475.59;4914787;29;20265;-79
2022/03/21 05:09:44;;;;;;;8.80;7.00;;;;;;;-1.13;53.57;101467.28;4912369;29;20304;-79
2022/03/21 05:12:12;;;;;;;9.60;7.30;;;;;;;-1.15;54.41;101470.00;4914039;29;20325;-79
2022/03/21 05:14:39;;;;;;;8.83;7.53;;;;;;;-1.26;55.09;101472.47;4907602;29;20245;-78
2022/03/21 05:17:05;;;;;;;10.70;7.60;;;;;;;-1.27;55.77;101469.94;4905862;29;20295;-79
2022/03/21 05:19:35;;;;;;;10.33;7.57;;;;;;;-1.28;55.35;101465.63;4899210;29;20715;-79
2022/03/21 05:22:06;;;;;;;10.40;7.73;;;;;;;-1.19;55.08;101460.63;4915192;29;20258;-79
2022/03/21 05:35:52;;;;;;;9.30;7.60;;;;;;;-1.00;54.77;101478.66;4914951;29;20261;-79
2022/03/21 05:35:58;;;;;;;8.93;7.13;;;;;;;-0.94;54.65;101487.00;4915207;29;20785;-78
2022/03/21 05:38:26;;;;;;;12.67;8.90;;;;;;;-0.74;53.97;101479.56;4913322;29;20289;-78
2022/03/21 05:40:58;;;;;;;9.67;7.60;;;;;;;-0.63;53.67;101484.97;4913535;29;20707;-78
2022/03/21 05:43:26;;;;;;;11.43;8.33;;;;;;;-0.51;53.32;101481.50;4898960;29;20245;-78
2022/03/21 05:45:54;;;;;;;9.63;7.57;;;;;;;-0.32;52.84;101486.34;4913925;29;20250;-78
2022/03/21 05:51:09;;;;;;;10.43;6.80;;;;;;;0.02;51.60;101500.69;4897522;29;20225;-79
2022/03/21 05:53:36;;;;;;;8.57;6.57;;;;;;;0.21;50.58;101496.66;4915069;29;20244;-78
2022/03/21 05:56:07;;;;;;;9.73;7.03;;;;;;;0.35;49.49;101501.81;4892118;29;20245;-79
2022/03/21 05:58:34;;;;;;;8.60;6.43;;;;;;;0.52;49.52;101499.75;4898620;29;21126;-79
2022/03/21 06:01:01;;;;;;;9.80;6.40;;;;;;;0.72;48.64;101493.88;4915181;29;20237;-79
2022/03/21 06:03:28;;;;;;;10.80;6.43;;;;;;;0.95;48.19;101492.19;4909067;29;20231;-79
2022/03/21 06:05:55;;;;;;;10.90;6.70;;;;;;;1.07;47.83;101496.59;4915155;29;20281;-78
2022/03/21 06:08:22;;;;;;;8.87;6.07;;;;;;;1.22;46.94;101490.16;4900666;29;20240;-78
2022/03/21 06:10:49;;;;;;;7.97;6.33;;;;;;;1.48;46.57;101496.97;4914974;29;20244;-78
2022/03/21 06:13:16;;;;;;;11.27;6.80;;;;;;;1.73;45.33;101496.78;4913977;29;20725;-78
2022/03/21 06:15:45;;;;;;;10.77;6.77;;;;;;;1.77;45.49;101500.84;4914906;29;20230;-77
2022/03/21 06:18:13;;;;;;;13.13;7.20;;;;;;;1.99;45.56;101507.16;4914767;29;20379;-79
2022/03/21 06:20:41;;;;;;;15.90;6.67;;;;;;;2.10;44.73;101501.88;4901634;29;20240;-78
2022/03/21 06:23:07;;;;;;;7.97;5.93;;;;;;;2.27;44.20;101513.78;4907909;29;20313;-78
2022/03/21 06:25:36;;;;;;;10.63;6.80;;;;;;;2.37;44.54;101506.81;4918645;29;20706;-79
2022/03/21 06:28:03;;;;;;;17.40;8.10;;;;;;;2.60;43.26;101508.47;4910658;29;20239;-79
2022/03/21 06:30:30;;;;;;;22.47;7.03;;;;;;;2.79;42.84;101513.97;4899785;29;20302;-78
2022/03/21 06:32:57;;;;;;;15.97;6.80;;;;;;;2.96;43.16;101515.22;4917762;29;20325;-79
2022/03/21 06:35:24;;;;;;;12.80;6.77;;;;;;;3.10;41.91;101514.94;4918627;29;20241;-79
2022/03/21 06:37:50;;;;;;;12.87;6.70;;;;;;;3.31;41.50;101515.81;4914989;29;20318;-79
2022/03/21 06:40:18;;;;;;;11.20;6.93;;;;;;;3.48;41.47;101511.75;4914788;29;20238;-79
2022/03/21 06:42:45;;;;;;;7.00;6.20;;;;;;;3.63;41.12;101514.94;4909696;29;20261;-78
2022/03/21 06:45:12;;;;;;;9.27;6.20;;;;;;;3.79;40.71;101520.63;4904230;29;20274;-78
2022/03/21 06:47:38;;;;;;;16.90;6.50;;;;;;;3.98;40.34;101523.38;4915078;29;21126;-78
2022/03/21 06:50:06;;;;;;;18.23;6.30;;;;;;;4.16;39.51;101528.91;4897676;29;20242;-80
2022/03/21 06:52:35;;;;;;;22.23;6.77;;;;;;;4.29;38.90;101521.59;4908663;29;20245;-79
2022/03/21 06:55:03;;;;;;;13.27;6.30;;;;;;;4.38;38.86;101524.28;4898925;29;20235;-79
2022/03/21 06:57:35;;;;;;;12.93;6.30;;;;;;;4.65;38.51;101533.47;4915499;29;20317;-78
2022/03/21 07:00:05;;;;;;;12.03;6.17;;;;;;;4.77;37.89;101529.69;4918885;29;20320;-78
2022/03/21 07:02:33;;;;;;;11.63;6.20;;;;;;;4.88;37.74;101525.13;4919246;29;20583;-79
2022/03/21 07:05:00;;;;;;;8.93;6.10;;;;;;;5.09;36.69;101526.81;4906643;29;20234;-79
2022/03/21 07:07:27;;;;;;;8.40;6.30;;;;;;;5.22;36.22;101528.25;4917273;29;20706;-79
2022/03/21 07:09:54;;;;;;;12.27;6.67;;;;;;;5.27;36.54;101535.81;4907625;29;20773;-79
2022/03/21 07:12:20;;;;;;;9.50;6.40;;;;;;;5.44;35.48;101539.56;4901049;29;20261;-79
2022/03/21 07:14:48;;;;;;;12.63;6.90;;;;;;;5.58;34.84;101536.50;4908085;29;20314;-79
2022/03/21 07:17:21;;;;;;;11.20;6.83;;;;;;;5.64;35.95;101534.13;4913529;29;20321;-79
2022/03/21 07:19:48;;;;;;;9.23;7.23;;;;;;;5.74;35.88;101539.41;4901880;29;20235;-79
2022/03/21 07:22:14;;;;;;;9.63;7.27;;;;;;;5.78;36.00;101532.00;4900919;29;20239;-77
2022/03/21 07:24:41;;;;;;;8.30;7.40;;;;;;;5.90;35.85;101538.84;4906597;29;20235;-78
2022/03/21 07:27:08;;;;;;;11.33;7.43;;;;;;;5.97;35.32;101543.44;4912172;29;20246;-78
2022/03/21 07:29:35;;;;;;;9.17;7.37;;;;;;;6.03;35.17;101545.53;4917956;29;20357;-78
2022/03/21 07:32:02;;;;;;;9.43;7.13;;;;;;;6.04;34.38;101538.41;4885218;29;20332;-78
2022/03/21 07:34:29;;;;;;;12.33;7.60;;;;;;;6.08;34.66;101545.13;4898912;29;20792;-78
2022/03/21 07:36:56;;;;;;;8.33;7.20;;;;;;;6.14;34.43;101549.88;4917126;29;20337;-78
2022/03/21 07:39:23;;;;;;;9.63;7.37;;;;;;;6.24;34.72;101548.03;4910361;29;20253;-78
2022/03/21 07:41:52;;;;;;;8.97;7.43;;;;;;;6.41;34.32;101543.75;4915237;29;20298;-77
2022/03/21 07:47:22;;;;;;;10.63;8.10;;;;;;;6.46;34.22;101545.00;4886252;29;20227;-78
2022/03/21 07:49:51;;;;;;;12.67;7.53;;;;;;;6.56;34.22;101547.63;4895098;29;20237;-78
2022/03/21 07:52:18;;;;;;;8.93;7.23;;;;;;;6.69;33.02;101541.94;4908220;29;20264;-78
2022/03/21 07:54:46;;;;;;;12.67;7.33;;;;;;;6.81;33.54;101535.44;4906312;29;20243;-78
2022/03/21 07:57:13;;;;;;;11.87;8.00;;;;;;;6.87;33.70;101543.66;4906624;29;20270;-78
2022/03/21 07:59:40;;;;;;;10.13;7.83;;;;;;;6.87;33.61;101540.16;4908153;29;20235;-76
2022/03/21 08:02:07;;;;;;;9.60;7.80;;;;;;;7.01;33.61;101537.81;4907767;29;20693;-76
2022/03/21 08:04:34;;;;;;;10.40;8.70;;;;;;;7.05;33.53;101538.34;4901263;29;20247;-77
2022/03/21 08:07:01;;;;;;;10.33;7.67;;;;;;;7.07;33.82;101536.38;4902886;29;20233;-77
2022/03/21 08:09:28;;;;;;;9.07;7.30;;;;;;;7.12;33.27;101530.59;4904654;29;20243;-76
2022/03/21 08:11:57;;;;;;;11.97;7.70;;;;;;;7.34;33.23;101536.31;4903459;29;20797;-75
2022/03/21 08:14:24;;;;;;;13.43;8.30;;;;;;;7.37;33.02;101535.19;4899961;29;20245;-77
2022/03/21 08:16:51;;;;;;;7.80;7.00;;;;;;;7.42;32.63;101538.22;4908040;29;20320;-77
2022/03/21 08:19:18;;;;;;;15.80;6.80;;;;;;;7.62;32.71;101536.22;4903025;29;20604;-76
2022/03/21 08:21:45;;;;;;;11.13;6.70;;;;;;;7.73;30.88;101530.66;4905174;29;20338;-77
2022/03/21 08:24:12;;;;;;;11.20;5.93;;;;;;;7.73;31.01;101528.81;4906010;29;20248;-76
2022/03/21 08:26:40;;;;;;;9.93;6.23;;;;;;;7.85;30.14;101524.91;4900350;29;20257;-77
2022/03/21 08:29:08;;;;;;;9.30;6.00;;;;;;;8.02;29.98;101523.19;4900382;29;20258;-77
2022/03/21 08:31:35;;;;;;;7.80;6.23;;;;;;;8.15;29.21;101520.09;4903106;29;20320;-77
2022/03/21 08:34:05;;;;;;;10.00;5.90;;;;;;;8.30;28.24;101519.38;4902822;29;20260;-77
2022/03/21 08:36:32;;;;;;;8.87;5.83;;;;;;;8.23;29.00;101525.47;4905524;29;20711;-77
2022/03/21 08:39:00;;;;;;;8.87;5.97;;;;;;;8.38;28.50;101519.41;4905973;29;20285;-77
2022/03/21 08:41:27;;;;;;;7.63;5.60;;;;;;;8.45;28.93;101529.44;4896277;29;20246;-77
2022/03/21 08:43:54;;;;;;;9.97;6.23;;;;;;;8.51;27.88;101524.31;4906366;29;20710;-77
2022/03/21 08:46:21;;;;;;;9.57;6.43;;;;;;;8.55;28.96;101522.16;4895835;29;20355;-77
2022/03/21 08:51:55;;;;;;;8.47;6.20;;;;;;;8.64;29.77;101519.34;4899504;29;20718;-77
2022/03/21 08:54:22;;;;;;;10.67;6.47;;;;;;;8.87;28.86;101522.25;4899631;29;20265;-77
2022/03/21 08:56:49;;;;;;;11.27;6.20;;;;;;;8.90;29.25;101521.97;4905538;29;20321;-76
2022/03/21 08:59:15;;;;;;;7.93;6.00;;;;;;;9.10;28.81;101514.47;4900844;29;20318;-77
2022/03/21 09:01:42;;;;;;;9.83;6.07;;;;;;;9.19;27.26;101514.31;4900764;29;20235;-76
2022/03/21 09:04:10;;;;;;;6.00;5.40;;;;;;;9.16;27.30;101521.84;4906527;29;20234;-77
2022/03/21 09:06:37;;;;;;;7.13;6.27;;;;;;;9.18;27.87;101514.50;4902246;29;20691;-77
2022/03/21 09:09:04;;;;;;;8.00;5.70;;;;;;;9.16;26.99;101519.16;4904979;29;20305;-76
2022/03/21 09:11:31;;;;;;;8.73;5.50;;;;;;;9.16;26.79;101511.13;4909395;29;20251;-77
2022/03/21 09:13:57;;;;;;;7.63;5.97;;;;;;;9.21;27.93;101514.16;4902940;29;20264;-77
2022/03/21 09:16:24;;;;;;;7.87;6.10;;;;;;;9.27;27.73;101509.00;4903322;29;20243;-76
2022/03/21 09:18:51;;;;;;;5.87;5.27;;;;;;;9.36;28.01;101511.66;4903794;29;20239;-76
2022/03/21 09:21:18;;;;;;;7.67;6.17;;;;;;;9.51;27.71;101507.34;4906429;29;20239;-76
2022/03/21 09:23:45;;;;;;;9.50;6.27;;;;;;;9.55;26.72;101501.47;4904767;29;20238;-77
2022/03/21 09:26:12;;;;;;;7.43;5.60;;;;;;;9.52;26.61;101509.81;4898311;29;20234;-76
2022/03/21 09:28:43;;;;;;;8.33;5.57;;;;;;;9.42;26.53;101505.66;4903287;29;20239;-76
2022/03/21 09:31:13;;;;;;;6.87;5.43;;;;;;;9.49;26.10;101504.81;4901091;29;20329;-76
2022/03/21 09:34:00;;;;;;;12.00;5.87;;;;;;;9.56;26.63;101500.47;4903356;29;20234;-76
2022/03/21 09:36:26;;;;;;;7.80;5.40;;;;;;;9.73;26.38;101499.47;4901256;29;20266;-76
2022/03/21 09:38:54;;;;;;;7.63;5.93;;;;;;;9.81;27.31;101506.63;4905019;29;20242;-76
2022/03/21 09:41:29;;;;;;;9.63;5.73;;;;;;;9.80;26.85;101502.28;4902015;29;20266;-76
2022/03/21 09:44:01;;;;;;;9.17;6.13;;;;;;;9.86;27.11;101495.41;4902429;29;20237;-77
2022/03/21 09:46:28;;;;;;;7.70;6.37;;;;;;;9.93;27.14;101502.63;4901151;29;20349;-75
2022/03/21 09:48:56;;;;;;;10.13;5.93;;;;;;;10.03;27.57;101497.06;4906095;29;20726;-77
2022/03/21 09:51:25;;;;;;;7.60;6.10;;;;;;;9.98;26.51;101497.59;4902031;29;20320;-76
2022/03/21 09:53:53;;;;;;;10.93;6.00;;;;;;;10.02;26.20;101496.25;4899431;29;20241;-76
2022/03/21 09:56:21;;;;;;;13.13;6.60;;;;;;;10.09;26.79;101483.81;4911547;29;20242;-77
2022/03/21 09:58:48;;;;;;;9.13;6.40;;;;;;;10.22;26.65;101487.84;4902772;29;20635;-77
2022/03/21 10:01:16;;;;;;;11.23;6.67;;;;;;;10.25;26.48;101482.16;4899939;29;20415;-76
2022/03/21 10:03:43;;;;;;;7.77;6.27;;;;;;;10.30;26.51;101479.78;4903387;29;20242;-76
2022/03/21 10:06:29;;;;;;;7.40;5.67;;;;;;;10.40;26.23;101478.56;4915127;29;20233;-76
2022/03/21 10:09:08;;;;;;;7.93;5.77;;;;;;;10.50;25.37;101473.81;4904234;29;20290;-76
2022/03/21 10:11:35;;;;;;;6.80;6.10;;;;;;;10.62;24.63;101476.97;4907813;29;20297;-79
2022/03/21 10:14:23;;;;;;;5.90;5.20;;;;;;;10.72;24.80;101461.50;4916065;29;20248;-76
2022/03/21 10:16:58;;;;;;;13.70;5.73;;;;;;;10.73;24.32;101470.38;4909219;29;20576;-76
2022/03/21 10:19:27;;;;;;;6.77;5.47;;;;;;;10.70;24.04;101478.75;4908220;29;20234;-77
2022/03/21 10:22:01;;;;;;;8.53;5.80;;;;;;;10.80;24.52;101468.66;4914423;29;20238;-76
2022/03/21 10:24:33;;;;;;;7.37;5.60;;;;;;;10.92;24.54;101467.22;4910241;29;20254;-77
2022/03/21 10:27:00;;;;;;;7.03;5.57;;;;;;;10.98;24.30;101469.22;4912111;29;20242;-76
2022/03/21 10:29:26;;;;;;;6.97;5.80;;;;;;;11.08;23.88;101464.44;4910421;29;20264;-76
2022/03/21 10:31:53;;;;;;;6.23;5.03;;;;;;;11.22;22.88;101458.31;4911273;29;20357;-77
2022/03/21 10:34:23;;;;;;;6.33;4.70;;;;;;;11.24;22.79;101458.13;4908051;29;20266;-77
2022/03/21 10:37:03;;;;;;;7.40;5.63;;;;;;;11.23;22.65;101457.31;4914777;29;20242;-77
2022/03/21 10:39:50;;;;;;;6.23;5.13;;;;;;;11.37;23.04;101453.00;4913143;29;20694;-79
2022/03/21 10:42:17;;;;;;;7.77;5.40;;;;;;;11.56;22.84;101457.03;4905429;29;20234;-79
2022/03/21 10:44:54;;;;;;;9.90;5.50;;;;;;;11.53;22.69;101454.69;4911737;29;20254;-79
2022/03/21 10:47:20;;;;;;;11.03;5.87;;;;;;;11.70;22.73;101440.94;4917378;29;20284;-79
2022/03/21 10:49:48;;;;;;;7.33;5.60;;;;;;;11.74;21.33;101453.03;4916481;29;20317;-78
2022/03/21 10:52:21;;;;;;;5.63;5.03;;;;;;;11.76;21.42;101448.28;4915105;29;20329;-79
2022/03/21 10:54:49;;;;;;;8.07;6.03;;;;;;;11.83;21.87;101441.19;4911608;29;20239;-78
2022/03/21 10:57:28;;;;;;;6.07;5.47;;;;;;;11.84;21.34;101442.00;4908007;29;20730;-78
2022/03/21 11:00:20;;;;;;;6.60;4.97;;;;;;;11.85;21.09;101431.06;4911682;29;20230;-79
2022/03/21 11:03:03;;;;;;;5.27;4.77;;;;;;;11.85;20.67;101444.50;4908630;29;20695;-79
2022/03/21 11:05:30;;;;;;;7.33;5.00;;;;;;;11.79;21.13;101428.28;4914340;29;20237;-79
2022/03/21 11:07:57;;;;;;;6.50;5.27;;;;;;;11.87;21.27;101426.34;4910319;29;20310;-79
2022/03/21 11:10:26;;;;;;;5.97;5.13;;;;;;;11.85;21.52;101433.75;4915544;29;20265;-79
2022/03/21 11:12:57;;;;;;;5.33;4.83;;;;;;;11.90;21.34;101423.28;4906404;29;20262;-79
2022/03/21 11:15:24;;;;;;;7.23;4.87;;;;;;;11.98;21.00;101425.06;4908688;29;20241;-79
2022/03/21 11:17:52;;;;;;;6.60;5.63;;;;;;;11.85;21.52;101414.94;4911207;29;20292;-76
2022/03/21 11:20:19;;;;;;;6.50;5.30;;;;;;;11.99;22.01;101412.47;4907577;29;20734;-79
2022/03/21 11:22:46;;;;;;;6.80;5.40;;;;;;;12.16;21.12;101414.78;4906520;29;20246;-79
2022/03/21 11:25:17;;;;;;;6.03;5.17;;;;;;;12.21;20.32;101412.38;4913614;29;20342;-79
2022/03/21 11:28:05;;;;;;;5.87;5.27;;;;;;;12.28;20.30;101415.94;4910500;29;20711;-79
2022/03/21 11:31:03;;;;;;;8.93;7.17;;;;;;;12.39;21.12;101409.28;4908408;29;20240;-79
2022/03/21 11:33:54;;;;;;;5.70;5.20;;;;;;;12.62;20.74;101403.75;4909027;29;20230;-79
2022/03/21 11:36:23;;;;;;;5.83;5.23;;;;;;;12.62;20.96;101407.28;4905594;29;20236;-80
2022/03/21 11:39:00;;;;;;;5.90;5.30;;;;;;;12.69;20.39;101396.59;4913003;29;20279;-79
2022/03/21 11:41:30;;;;;;;9.00;5.50;;;;;;;12.60;20.49;101395.84;4906972;29;20301;-79
2022/03/21 11:44:03;;;;;;;7.10;5.10;;;;;;;12.62;19.89;101395.69;4908762;29;20337;-78
2022/03/21 11:46:37;;;;;;;5.70;4.67;;;;;;;12.63;19.67;101394.66;4909603;29;20308;-79
2022/03/21 11:49:31;;;;;;;5.97;5.13;;;;;;;12.56;20.17;101388.38;4909700;29;20264;-78
2022/03/21 11:51:59;;;;;;;5.57;5.07;;;;;;;12.69;20.32;101399.28;4882250;29;20321;-79
2022/03/21 11:54:37;;;;;;;6.00;5.40;;;;;;;12.73;20.36;101393.34;4901766;29;20313;-79
2022/03/21 11:57:08;;;;;;;6.97;5.70;;;;;;;12.73;20.53;101392.50;4905614;29;20313;-79
2022/03/21 11:59:34;;;;;;;5.70;5.10;;;;;;;12.60;20.42;101392.34;4894101;29;20229;-78